Time;durP1;ratioP1;P1;durP2;ratioP2;P2;SDS_P1;SDS_P2;PMS_P1;PMS_P2;Temp;Humidity;BMP_temperature;BMP_pressure;BME280_temperature;BME280_humidity;BME280_pressure;Samples;Min_cycle;Max_cycle;Signal;HPM_P1;HPM_P2
2023/01/28 00:00:13;;;;;;;34.78;18.05;;;;;;;;;;4996634;28;20041;-74
2023/01/28 00:02:58;;;;;;;39.80;19.60;;;;;;;;;;4994604;28;20038;-75
2023/01/28 00:05:44;;;;;;;38.22;19.15;;;;;;;;;;4996330;28;20443;-73
2023/01/28 00:08:30;;;;;;;36.10;19.05;;;;;;;;;;4996267;28;20026;-73
2023/01/28 00:11:15;;;;;;;35.38;18.17;;;;;;;;;;4994945;28;20049;-74
2023/01/28 00:14:03;;;;;;;39.28;18.88;;;;;;;;;;4980488;28;20022;-74
2023/01/28 00:16:49;;;;;;;41.10;19.48;;;;;;;;;;4995967;28;20037;-73
2023/01/28 00:19:34;;;;;;;38.85;19.40;;;;;;;;;;4981273;28;20037;-76
2023/01/28 00:22:20;;;;;;;40.97;19.55;;;;;;;;;;4980974;28;20035;-74
2023/01/28 00:25:06;;;;;;;38.03;18.55;;;;;;;;;;4981225;28;20026;-75
2023/01/28 00:27:51;;;;;;;37.72;18.45;;;;;;;;;;4983616;28;20022;-75
2023/01/28 00:30:37;;;;;;;34.15;16.83;;;;;;;;;;4982446;28;20026;-75
2023/01/28 00:33:23;;;;;;;33.95;17.85;;;;;;;;;;4993619;28;20081;-76
2023/01/28 00:36:09;;;;;;;36.80;17.77;;;;;;;;;;4989795;28;20383;-73
2023/01/28 00:38:56;;;;;;;37.92;19.58;;;;;;;;;;4994698;28;20019;-73
2023/01/28 00:41:41;;;;;;;35.42;18.52;;;;;;;;;;4995148;28;20030;-74
2023/01/28 00:44:27;;;;;;;37.05;17.45;;;;;;;;;;4989273;28;20027;-75
2023/01/28 00:47:12;;;;;;;33.00;17.40;;;;;;;;;;4994349;28;20345;-75
2023/01/28 00:49:58;;;;;;;31.30;17.27;;;;;;;;;;4995261;28;20180;-75
2023/01/28 00:52:44;;;;;;;37.20;18.13;;;;;;;;;;4997105;28;20018;-73
2023/01/28 00:55:29;;;;;;;35.53;17.80;;;;;;;;;;5000708;28;20068;-74
2023/01/28 00:58:15;;;;;;;34.17;17.63;;;;;;;;;;4986877;28;20101;-75
2023/01/28 01:01:07;;;;;;;34.42;16.77;;;;;;;;;;4984743;28;20109;-75
2023/01/28 01:04:01;;;;;;;38.33;18.90;;;;;;;;;;4981233;28;20482;-74
2023/01/28 01:06:46;;;;;;;38.65;18.30;;;;;;;;;;4981839;28;20450;-74
2023/01/28 01:09:32;;;;;;;34.70;17.33;;;;;;;;;;4995338;28;20022;-74
2023/01/28 01:12:18;;;;;;;37.03;18.30;;;;;;;;;;4985315;28;20035;-74
2023/01/28 01:15:07;;;;;;;36.13;18.00;;;;;;;;;;4998071;28;20058;-73
2023/01/28 01:17:53;;;;;;;31.65;16.85;;;;;;;;;;4985493;28;20046;-73
2023/01/28 01:20:44;;;;;;;35.00;17.73;;;;;;;;;;4998088;28;20022;-74
2023/01/28 01:23:30;;;;;;;32.53;16.55;;;;;;;;;;4996839;28;20026;-74
2023/01/28 01:26:15;;;;;;;27.98;14.43;;;;;;;;;;4997856;28;20165;-74
2023/01/28 01:29:01;;;;;;;26.98;14.35;;;;;;;;;;4997971;28;20336;-73
2023/01/28 01:31:46;;;;;;;25.27;14.30;;;;;;;;;;4998267;28;20093;-75
2023/01/28 01:34:32;;;;;;;26.80;14.10;;;;;;;;;;4996246;28;20054;-75
2023/01/28 01:37:18;;;;;;;28.73;14.75;;;;;;;;;;4998477;28;20036;-73
2023/01/28 01:40:04;;;;;;;27.02;14.25;;;;;;;;;;4983986;28;20382;-74
2023/01/28 01:42:49;;;;;;;28.42;14.73;;;;;;;;;;4996402;28;20030;-74
2023/01/28 01:45:35;;;;;;;25.60;13.65;;;;;;;;;;4998488;28;20010;-75
2023/01/28 01:48:27;;;;;;;25.90;13.15;;;;;;;;;;4983346;28;20348;-74
2023/01/28 01:51:14;;;;;;;26.50;13.45;;;;;;;;;;4984373;28;20423;-72
2023/01/28 01:54:00;;;;;;;24.92;13.38;;;;;;;;;;4982226;28;20081;-73
2023/01/28 01:56:48;;;;;;;28.58;14.40;;;;;;;;;;4999509;28;20100;-73
2023/01/28 01:59:34;;;;;;;24.88;12.98;;;;;;;;;;4998692;28;20451;-74
2023/01/28 02:02:20;;;;;;;24.13;13.20;;;;;;;;;;4997390;28;20457;-73
2023/01/28 02:05:07;;;;;;;23.33;12.65;;;;;;;;;;4998861;28;20097;-73
2023/01/28 02:07:54;;;;;;;23.70;12.77;;;;;;;;;;4998879;28;20014;-74
2023/01/28 02:10:40;;;;;;;25.35;13.35;;;;;;;;;;4998445;28;20026;-74
2023/01/28 02:13:27;;;;;;;25.73;13.02;;;;;;;;;;4998800;28;20092;-75
2023/01/28 02:16:13;;;;;;;23.63;13.10;;;;;;;;;;4998988;28;20124;-74
2023/01/28 02:18:59;;;;;;;25.05;13.48;;;;;;;;;;4998250;28;20099;-74
2023/01/28 02:21:56;;;;;;;28.17;14.13;;;;;;;;;;4996956;28;20030;-74
2023/01/28 02:25:00;;;;;;;25.15;13.40;;;;;;;;;;4983723;28;20026;-74
2023/01/28 02:27:48;;;;;;;24.60;13.57;;;;;;;;;;4998938;28;20449;-73
2023/01/28 02:30:36;;;;;;;25.83;13.82;;;;;;;;;;4982666;28;20030;-74
2023/01/28 02:33:28;;;;;;;25.98;14.07;;;;;;;;;;4998166;28;20045;-74
2023/01/28 02:36:35;;;;;;;26.20;13.80;;;;;;;;;;4998830;28;20046;-73
2023/01/28 02:39:25;;;;;;;27.15;13.98;;;;;;;;;;4998349;28;20030;-75
2023/01/28 02:42:18;;;;;;;27.08;14.52;;;;;;;;;;4997446;28;20042;-74
2023/01/28 02:45:11;;;;;;;27.63;13.95;;;;;;;;;;4983443;28;20054;-74
2023/01/28 02:47:56;;;;;;;28.75;14.50;;;;;;;;;;4984152;28;20459;-74
2023/01/28 02:50:53;;;;;;;28.92;14.25;;;;;;;;;;4998689;28;20026;-74
2023/01/28 02:53:45;;;;;;;24.67;13.95;;;;;;;;;;4997489;28;20030;-74
2023/01/28 02:56:31;;;;;;;28.02;14.80;;;;;;;;;;4984253;28;20023;-74
2023/01/28 02:59:32;;;;;;;27.63;14.60;;;;;;;;;;4997798;28;20058;-73
2023/01/28 03:02:29;;;;;;;29.27;14.50;;;;;;;;;;4997270;28;20172;-74
2023/01/28 03:05:21;;;;;;;26.80;14.13;;;;;;;;;;4983052;28;20026;-74
2023/01/28 03:09:21;;;;;;;29.17;15.50;;;;;;;;;;4982267;28;20027;-74
2023/01/28 03:36:52;;;;;;;31.67;16.00;;;;;;;;;;4996631;28;20100;-74
2023/01/28 03:39:37;;;;;;;32.03;16.27;;;;;;;;;;4996523;28;20109;-73
2023/01/28 03:42:23;;;;;;;30.95;16.15;;;;;;;;;;4981349;28;20201;-74
2023/01/28 03:45:09;;;;;;;29.85;15.80;;;;;;;;;;4996591;28;20033;-74
2023/01/28 03:47:54;;;;;;;30.35;15.90;;;;;;;;;;4997331;28;20022;-74
2023/01/28 03:50:40;;;;;;;28.33;15.20;;;;;;;;;;4982517;28;20023;-73
2023/01/28 03:53:27;;;;;;;30.27;15.65;;;;;;;;;;4982545;28;20018;-73
2023/01/28 03:56:17;;;;;;;27.17;15.27;;;;;;;;;;4996363;28;20018;-73
2023/01/28 03:59:03;;;;;;;30.17;16.08;;;;;;;;;;4996161;28;20042;-73
2023/01/28 04:01:49;;;;;;;27.63;15.75;;;;;;;;;;4996844;28;20490;-74
2023/01/28 04:04:36;;;;;;;31.17;16.25;;;;;;;;;;4996116;28;20018;-73
2023/01/28 04:07:21;;;;;;;31.40;16.40;;;;;;;;;;4996812;28;20336;-74
2023/01/28 04:10:07;;;;;;;30.73;15.77;;;;;;;;;;4981810;28;20084;-74
2023/01/28 04:12:53;;;;;;;27.27;15.00;;;;;;;;;;4996512;28;20065;-73
2023/01/28 04:15:38;;;;;;;31.88;16.23;;;;;;;;;;4996466;28;20033;-74
2023/01/28 04:18:26;;;;;;;30.15;16.15;;;;;;;;;;4981477;28;20011;-74
2023/01/28 04:21:11;;;;;;;29.98;16.15;;;;;;;;;;4981784;28;20022;-74
2023/01/28 04:23:57;;;;;;;27.52;15.10;;;;;;;;;;4995783;28;20077;-75
2023/01/28 04:26:43;;;;;;;27.42;15.02;;;;;;;;;;4995695;28;20026;-73
2023/01/28 04:29:28;;;;;;;30.15;15.77;;;;;;;;;;4995974;28;20060;-74
2023/01/28 04:32:14;;;;;;;29.55;15.25;;;;;;;;;;4995163;28;20088;-74
2023/01/28 04:34:59;;;;;;;27.77;14.32;;;;;;;;;;4996004;28;20042;-75
2023/01/28 04:37:45;;;;;;;26.73;14.73;;;;;;;;;;4995125;28;20033;-74
2023/01/28 04:40:31;;;;;;;25.92;14.45;;;;;;;;;;4995586;28;20033;-72
2023/01/28 04:43:17;;;;;;;31.83;17.23;;;;;;;;;;4996499;28;20372;-73
2023/01/28 04:46:02;;;;;;;31.45;17.27;;;;;;;;;;4995770;28;20121;-74
2023/01/28 04:48:48;;;;;;;26.02;15.05;;;;;;;;;;4996134;28;20015;-74
2023/01/28 04:51:33;;;;;;;27.25;14.68;;;;;;;;;;4982134;28;20097;-75
2023/01/28 04:54:19;;;;;;;28.77;14.63;;;;;;;;;;4981123;28;20023;-75
2023/01/28 04:57:04;;;;;;;30.13;15.13;;;;;;;;;;4980903;28;20517;-74
2023/01/28 04:59:50;;;;;;;25.00;14.60;;;;;;;;;;4981911;28;20037;-74
2023/01/28 05:02:36;;;;;;;26.27;13.95;;;;;;;;;;4981868;28;20117;-74
2023/01/28 05:05:21;;;;;;;24.88;13.50;;;;;;;;;;4980878;28;20113;-74
2023/01/28 05:08:07;;;;;;;27.75;13.85;;;;;;;;;;4994142;28;20081;-74
2023/01/28 05:10:53;;;;;;;25.98;13.85;;;;;;;;;;4995106;28;20033;-75
2023/01/28 05:13:38;;;;;;;22.65;12.95;;;;;;;;;;4981717;28;20037;-74
2023/01/28 05:16:24;;;;;;;22.88;12.57;;;;;;;;;;4982002;28;20022;-73
2023/01/28 05:19:10;;;;;;;25.35;12.93;;;;;;;;;;4995432;28;20379;-74
2023/01/28 05:21:55;;;;;;;21.35;11.85;;;;;;;;;;4995781;28;20038;-74
2023/01/28 05:24:41;;;;;;;20.83;11.43;;;;;;;;;;4995973;28;20439;-74
2023/01/28 05:27:27;;;;;;;20.02;11.55;;;;;;;;;;4996019;28;20394;-74
2023/01/28 05:30:12;;;;;;;18.27;11.10;;;;;;;;;;4995487;28;20029;-75
2023/01/28 05:32:58;;;;;;;20.20;11.13;;;;;;;;;;4981238;28;20039;-75
2023/01/28 05:35:43;;;;;;;19.67;11.30;;;;;;;;;;4995754;28;20117;-76
2023/01/28 05:38:29;;;;;;;19.30;10.73;;;;;;;;;;4981547;28;20118;-74
2023/01/28 05:41:14;;;;;;;19.67;11.10;;;;;;;;;;4980992;28;20030;-74
2023/01/28 05:44:00;;;;;;;17.40;10.07;;;;;;;;;;4995882;28;20050;-74
2023/01/28 05:46:46;;;;;;;17.42;10.27;;;;;;;;;;4981187;28;20120;-74
2023/01/28 05:49:31;;;;;;;17.33;10.35;;;;;;;;;;4995022;28;20469;-74
2023/01/28 05:52:17;;;;;;;17.83;10.40;;;;;;;;;;4981228;28;20022;-74
2023/01/28 05:55:03;;;;;;;19.27;10.02;;;;;;;;;;4995609;28;20545;-74
2023/01/28 05:57:49;;;;;;;17.65;10.60;;;;;;;;;;4997662;28;20026;-74
2023/01/28 06:00:34;;;;;;;17.20;10.75;;;;;;;;;;4997897;28;20030;-73
2023/01/28 06:03:20;;;;;;;15.85;10.13;;;;;;;;;;4998817;28;20384;-74
2023/01/28 06:06:06;;;;;;;19.73;11.10;;;;;;;;;;4984789;28;20022;-75
2023/01/28 06:08:51;;;;;;;17.13;10.10;;;;;;;;;;4997576;28;20014;-74
2023/01/28 06:11:37;;;;;;;20.20;11.52;;;;;;;;;;4999707;28;20431;-75
2023/01/28 06:14:22;;;;;;;17.42;10.63;;;;;;;;;;5012233;28;20026;-74
2023/01/28 06:17:08;;;;;;;16.45;9.82;;;;;;;;;;4985725;28;20031;-74
2023/01/28 06:19:54;;;;;;;18.85;10.52;;;;;;;;;;5000068;28;20022;-75
2023/01/28 06:22:39;;;;;;;17.17;9.85;;;;;;;;;;4984521;28;20109;-74
2023/01/28 06:25:25;;;;;;;18.00;10.05;;;;;;;;;;4999514;28;20014;-74
2023/01/28 06:28:10;;;;;;;17.15;9.85;;;;;;;;;;4998820;28;20019;-75
2023/01/28 06:30:56;;;;;;;18.65;10.57;;;;;;;;;;4997066;28;20450;-74
2023/01/28 06:33:42;;;;;;;19.17;10.20;;;;;;;;;;4999840;28;20042;-75
2023/01/28 06:36:27;;;;;;;17.77;10.00;;;;;;;;;;5001544;28;20038;-76
2023/01/28 06:39:13;;;;;;;19.40;10.13;;;;;;;;;;4998247;28;20027;-74
2023/01/28 06:41:59;;;;;;;19.80;10.85;;;;;;;;;;4984910;28;20034;-75
2023/01/28 06:44:44;;;;;;;20.05;11.65;;;;;;;;;;4998764;28;20022;-74
2023/01/28 06:47:30;;;;;;;20.80;11.63;;;;;;;;;;4997712;28;20015;-74
2023/01/28 06:50:16;;;;;;;22.88;11.63;;;;;;;;;;4998548;28;20313;-75
2023/01/28 06:53:01;;;;;;;22.42;11.98;;;;;;;;;;4984323;28;20058;-75
2023/01/28 06:55:47;;;;;;;19.17;11.82;;;;;;;;;;4983137;28;20094;-75
2023/01/28 06:58:33;;;;;;;21.27;11.48;;;;;;;;;;4998196;28;20018;-74
2023/01/28 07:01:18;;;;;;;17.95;11.65;;;;;;;;;;4997213;28;20064;-73
2023/01/28 07:04:04;;;;;;;19.95;11.05;;;;;;;;;;4997981;28;20062;-73
2023/01/28 07:06:50;;;;;;;20.35;11.38;;;;;;;;;;4997027;28;20018;-73
2023/01/28 07:09:35;;;;;;;20.38;11.68;;;;;;;;;;4997894;28;20033;-74
2023/01/28 07:12:21;;;;;;;16.80;11.15;;;;;;;;;;4998807;28;20462;-74
2023/01/28 07:15:07;;;;;;;18.77;11.45;;;;;;;;;;4998122;28;20084;-76
2023/01/28 07:17:53;;;;;;;19.15;10.70;;;;;;;;;;4997396;28;20034;-74
2023/01/28 07:20:38;;;;;;;20.08;12.45;;;;;;;;;;4997130;28;20025;-73
2023/01/28 07:23:24;;;;;;;21.17;12.40;;;;;;;;;;4997870;28;20057;-74
2023/01/28 07:26:09;;;;;;;21.10;12.13;;;;;;;;;;4997371;28;20021;-76
2023/01/28 07:28:55;;;;;;;22.58;11.93;;;;;;;;;;4998214;28;20105;-75
2023/01/28 07:31:40;;;;;;;21.25;12.10;;;;;;;;;;4982539;28;20378;-74
2023/01/28 07:34:26;;;;;;;21.65;12.95;;;;;;;;;;4996936;28;20442;-75
2023/01/28 07:37:11;;;;;;;23.98;12.65;;;;;;;;;;4996996;28;20069;-76
2023/01/28 07:39:57;;;;;;;23.40;13.57;;;;;;;;;;4995966;28;20034;-76
2023/01/28 07:42:43;;;;;;;25.23;15.18;;;;;;;;;;4996793;28;20046;-75
2023/01/28 07:45:30;;;;;;;28.40;14.63;;;;;;;;;;4997378;28;20362;-75
2023/01/28 07:48:16;;;;;;;29.83;14.55;;;;;;;;;;4995747;28;20029;-74
2023/01/28 07:51:02;;;;;;;23.77;13.75;;;;;;;;;;4981623;28;20399;-75
2023/01/28 07:53:47;;;;;;;31.00;16.40;;;;;;;;;;4995736;28;20026;-75
2023/01/28 07:56:33;;;;;;;26.58;14.85;;;;;;;;;;4996908;28;20458;-76
2023/01/28 07:59:18;;;;;;;27.02;15.43;;;;;;;;;;4997117;28;20129;-75
2023/01/28 08:02:04;;;;;;;27.67;15.50;;;;;;;;;;4996512;28;20027;-75
2023/01/28 08:04:50;;;;;;;29.33;16.77;;;;;;;;;;4996327;28;20112;-75
2023/01/28 08:07:35;;;;;;;32.35;18.30;;;;;;;;;;4996053;28;20018;-76
2023/01/28 08:10:21;;;;;;;34.45;19.40;;;;;;;;;;4996717;28;20025;-76
2023/01/28 08:13:08;;;;;;;35.33;19.35;;;;;;;;;;4996374;28;20018;-77
2023/01/28 08:15:54;;;;;;;34.90;18.65;;;;;;;;;;4996793;28;20431;-75
2023/01/28 08:18:42;;;;;;;34.53;19.08;;;;;;;;;;4995809;28;20038;-75
2023/01/28 08:21:28;;;;;;;34.13;18.90;;;;;;;;;;4994519;28;20039;-76
2023/01/28 08:24:13;;;;;;;35.88;19.20;;;;;;;;;;4995685;28;20026;-74
2023/01/28 08:26:59;;;;;;;31.25;17.98;;;;;;;;;;4995978;28;20034;-75
2023/01/28 08:29:44;;;;;;;31.42;17.85;;;;;;;;;;4981680;28;20018;-75
2023/01/28 08:32:30;;;;;;;34.90;17.45;;;;;;;;;;4996144;28;20022;-75
2023/01/28 08:35:16;;;;;;;31.92;17.17;;;;;;;;;;4995866;28;20042;-75
2023/01/28 08:38:02;;;;;;;31.55;17.45;;;;;;;;;;4981721;28;20387;-75
2023/01/28 08:40:54;;;;;;;30.73;15.85;;;;;;;;;;4994979;28;20030;-76
2023/01/28 08:43:39;;;;;;;29.90;16.02;;;;;;;;;;4995490;28;20019;-76
2023/01/28 08:46:25;;;;;;;26.50;15.20;;;;;;;;;;4996251;28;20101;-76
2023/01/28 08:49:11;;;;;;;32.38;17.27;;;;;;;;;;4995863;28;20018;-75
2023/01/28 08:51:56;;;;;;;32.72;17.80;;;;;;;;;;4995789;28;20030;-75
2023/01/28 08:54:42;;;;;;;34.72;17.92;;;;;;;;;;4995619;28;20045;-75
2023/01/28 08:57:27;;;;;;;28.52;15.98;;;;;;;;;;4995954;28;20093;-73
2023/01/28 09:00:13;;;;;;;29.90;16.05;;;;;;;;;;4996042;28;20073;-74
2023/01/28 09:02:59;;;;;;;28.90;15.85;;;;;;;;;;4980689;28;20366;-74
2023/01/28 09:05:45;;;;;;;31.63;16.75;;;;;;;;;;4995509;28;20358;-74
2023/01/28 09:08:31;;;;;;;33.22;16.75;;;;;;;;;;4995439;28;20014;-74
2023/01/28 09:11:16;;;;;;;31.90;16.50;;;;;;;;;;4994892;28;20041;-74
2023/01/28 09:14:02;;;;;;;33.30;17.70;;;;;;;;;;4980957;28;20031;-75
2023/01/28 09:16:47;;;;;;;33.65;18.15;;;;;;;;;;4995896;28;20419;-75
2023/01/28 09:19:33;;;;;;;37.13;19.23;;;;;;;;;;4995001;28;20045;-74
2023/01/28 09:22:19;;;;;;;37.30;19.75;;;;;;;;;;4995159;28;20320;-76
2023/01/28 09:25:05;;;;;;;43.67;20.00;;;;;;;;;;4995094;28;20339;-75
2023/01/28 09:27:51;;;;;;;40.35;19.77;;;;;;;;;;4995154;28;20105;-74
2023/01/28 09:30:38;;;;;;;38.55;19.55;;;;;;;;;;4995077;28;20014;-75
2023/01/28 09:33:24;;;;;;;35.55;18.48;;;;;;;;;;4985597;28;20030;-74
2023/01/28 09:36:10;;;;;;;35.17;18.52;;;;;;;;;;4999407;28;20056;-74
2023/01/28 09:38:55;;;;;;;33.78;18.40;;;;;;;;;;4999451;28;20446;-75
2023/01/28 09:41:41;;;;;;;35.20;17.95;;;;;;;;;;4998692;28;20030;-75
2023/01/28 09:44:43;;;;;;;30.45;17.17;;;;;;;;;;4984283;28;20018;-74
2023/01/28 09:47:37;;;;;;;33.20;17.15;;;;;;;;;;4984460;28;20438;-74
2023/01/28 09:50:29;;;;;;;30.23;15.75;;;;;;;;;;4998771;28;20030;-73
2023/01/28 09:53:14;;;;;;;26.33;14.88;;;;;;;;;;4982084;28;20022;-74
2023/01/28 09:56:07;;;;;;;27.63;14.88;;;;;;;;;;4983547;28;20026;-75
2023/01/28 09:58:52;;;;;;;28.00;15.50;;;;;;;;;;4996610;28;20039;-73
2023/01/28 10:01:45;;;;;;;29.17;14.88;;;;;;;;;;4983486;28;20023;-76
2023/01/28 10:05:00;;;;;;;29.10;15.25;;;;;;;;;;4983614;28;20029;-69
2023/01/28 10:07:54;;;;;;;27.92;14.68;;;;;;;;;;4978841;28;20049;-74
2023/01/28 10:10:43;;;;;;;26.90;14.75;;;;;;;;;;4983323;28;20022;-75
2023/01/28 10:13:42;;;;;;;31.23;15.35;;;;;;;;;;4982805;28;20026;-75
2023/01/28 10:16:41;;;;;;;25.05;13.95;;;;;;;;;;4983778;28;20320;-75
2023/01/28 10:19:32;;;;;;;24.25;13.35;;;;;;;;;;4997424;28;20022;-76
2023/01/28 10:22:21;;;;;;;28.25;15.32;;;;;;;;;;4983212;28;20015;-75
2023/01/28 10:25:14;;;;;;;27.95;15.15;;;;;;;;;;4997830;28;20014;-77
2023/01/28 10:28:00;;;;;;;27.85;15.82;;;;;;;;;;4997654;28;20018;-74
2023/01/28 10:30:46;;;;;;;29.33;15.40;;;;;;;;;;4983858;28;20029;-75
2023/01/28 10:33:35;;;;;;;26.60;14.68;;;;;;;;;;4984150;28;20057;-74
2023/01/28 10:36:21;;;;;;;23.88;13.88;;;;;;;;;;4976644;28;20121;-75
2023/01/28 10:39:08;;;;;;;25.65;14.30;;;;;;;;;;4977533;28;20039;-75
2023/01/28 10:41:54;;;;;;;29.00;15.05;;;;;;;;;;4976416;28;20022;-74
2023/01/28 10:44:41;;;;;;;26.85;15.00;;;;;;;;;;4977459;28;20045;-75
2023/01/28 10:47:30;;;;;;;26.42;15.02;;;;;;;;;;4977061;28;20094;-76
2023/01/28 10:50:23;;;;;;;26.95;15.10;;;;;;;;;;4977405;28;20023;-76
2023/01/28 10:53:09;;;;;;;28.83;16.63;;;;;;;;;;4958645;28;20019;-74
2023/01/28 10:55:57;;;;;;;31.23;17.08;;;;;;;;;;4957819;29;20030;-76
2023/01/28 10:58:49;;;;;;;30.23;16.90;;;;;;;;;;4959742;28;20023;-74
2023/01/28 11:01:49;;;;;;;33.42;18.55;;;;;;;;;;4966920;28;20031;-76
2023/01/28 11:04:35;;;;;;;31.80;17.60;;;;;;;;;;4962055;28;20090;-75
2023/01/28 11:07:20;;;;;;;33.40;18.40;;;;;;;;;;4958379;28;20114;-75
2023/01/28 11:10:24;;;;;;;31.83;18.02;;;;;;;;;;4958127;28;20105;-75
2023/01/28 11:13:17;;;;;;;37.90;19.70;;;;;;;;;;4958188;28;20016;-76
2023/01/28 11:16:05;;;;;;;31.80;17.95;;;;;;;;;;4958281;28;20019;-75
2023/01/28 11:19:03;;;;;;;35.95;18.05;;;;;;;;;;4957919;28;20027;-75
2023/01/28 11:21:54;;;;;;;30.60;17.42;;;;;;;;;;4957867;28;20038;-74
2023/01/28 11:24:41;;;;;;;33.30;17.55;;;;;;;;;;4957923;28;20030;-75
2023/01/28 11:27:28;;;;;;;28.15;16.52;;;;;;;;;;4957173;29;20011;-75
2023/01/28 11:30:20;;;;;;;32.28;17.30;;;;;;;;;;4957099;29;20023;-74
2023/01/28 11:33:25;;;;;;;31.77;17.67;;;;;;;;;;4958488;29;20038;-75
2023/01/28 11:36:28;;;;;;;30.02;17.02;;;;;;;;;;4957833;28;20101;-75
2023/01/28 11:39:20;;;;;;;28.67;16.65;;;;;;;;;;4976087;28;20447;-75
2023/01/28 11:42:15;;;;;;;25.08;14.80;;;;;;;;;;4975465;28;20448;-76
2023/01/28 11:45:01;;;;;;;23.70;14.07;;;;;;;;;;4976773;28;20026;-77
2023/01/28 11:48:05;;;;;;;26.98;15.18;;;;;;;;;;4975678;28;20023;-75
2023/01/28 11:51:07;;;;;;;26.75;15.05;;;;;;;;;;4981247;28;20041;-75
2023/01/28 11:53:58;;;;;;;25.38;15.35;;;;;;;;;;4976918;28;20027;-74
2023/01/28 11:57:02;;;;;;;29.42;14.55;;;;;;;;;;4984565;28;20469;-75
2023/01/28 12:00:06;;;;;;;23.95;14.93;;;;;;;;;;4979186;28;20027;-73
2023/01/28 12:02:58;;;;;;;25.67;14.98;;;;;;;;;;4976515;28;20027;-74
2023/01/28 12:06:02;;;;;;;25.08;14.07;;;;;;;;;;4975782;28;20022;-72
2023/01/28 12:09:06;;;;;;;27.00;14.82;;;;;;;;;;4956732;29;20030;-73
2023/01/28 12:12:10;;;;;;;26.58;14.68;;;;;;;;;;4958454;28;20055;-75
2023/01/28 12:15:08;;;;;;;25.08;14.32;;;;;;;;;;4957705;29;20019;-74
2023/01/28 12:17:59;;;;;;;24.63;13.43;;;;;;;;;;4958690;29;20019;-76
2023/01/28 12:20:44;;;;;;;26.40;14.20;;;;;;;;;;4961144;28;20042;-78
2023/01/28 12:23:30;;;;;;;23.48;13.77;;;;;;;;;;4957194;29;20028;-76
2023/01/28 12:26:22;;;;;;;22.02;12.82;;;;;;;;;;4960179;29;20062;-77
2023/01/28 12:29:17;;;;;;;21.77;13.07;;;;;;;;;;4962745;29;20345;-76
2023/01/28 12:32:05;;;;;;;21.88;13.27;;;;;;;;;;4963596;28;20039;-76
2023/01/28 12:35:01;;;;;;;23.63;13.55;;;;;;;;;;4964318;28;20483;-76
2023/01/28 12:37:50;;;;;;;24.05;14.05;;;;;;;;;;4982271;28;20061;-75
2023/01/28 12:40:35;;;;;;;26.83;15.27;;;;;;;;;;4978234;28;20051;-76
2023/01/28 12:43:21;;;;;;;22.83;13.82;;;;;;;;;;4982836;28;20045;-76
2023/01/28 12:46:21;;;;;;;27.88;15.52;;;;;;;;;;4977069;28;20372;-76
2023/01/28 12:49:15;;;;;;;29.58;15.18;;;;;;;;;;4962708;28;20085;-76
2023/01/28 12:52:04;;;;;;;27.67;15.57;;;;;;;;;;4976751;28;20031;-77
2023/01/28 12:55:08;;;;;;;26.23;14.73;;;;;;;;;;4962319;28;20035;-76
2023/01/28 12:57:56;;;;;;;27.60;14.85;;;;;;;;;;4961712;28;20026;-76
2023/01/28 13:00:45;;;;;;;27.08;15.95;;;;;;;;;;4975569;28;20034;-77
2023/01/28 13:03:49;;;;;;;26.30;14.93;;;;;;;;;;4962202;28;20026;-76
2023/01/28 13:06:46;;;;;;;29.33;16.33;;;;;;;;;;4965566;28;20378;-76
2023/01/28 13:09:34;;;;;;;27.73;15.80;;;;;;;;;;4979361;28;20038;-76
2023/01/28 13:12:20;;;;;;;27.45;15.82;;;;;;;;;;4979505;28;20118;-76
2023/01/28 13:15:14;;;;;;;27.00;15.68;;;;;;;;;;4965527;28;20367;-75
2023/01/28 13:18:01;;;;;;;27.67;16.10;;;;;;;;;;4979439;28;20057;-76
2023/01/28 13:20:48;;;;;;;27.42;15.90;;;;;;;;;;4978920;28;20051;-76
2023/01/28 13:23:40;;;;;;;26.95;15.57;;;;;;;;;;4978999;28;20534;-76
2023/01/28 13:26:27;;;;;;;28.63;15.98;;;;;;;;;;4964975;28;20034;-76
2023/01/28 13:29:13;;;;;;;29.90;17.27;;;;;;;;;;4979094;28;20444;-76
2023/01/28 13:32:00;;;;;;;35.63;17.35;;;;;;;;;;4964769;28;20026;-75
2023/01/28 13:34:55;;;;;;;34.05;17.77;;;;;;;;;;4964932;28;20061;-76
2023/01/28 13:37:44;;;;;;;36.83;18.15;;;;;;;;;;4965231;28;20022;-76
2023/01/28 13:40:29;;;;;;;30.95;18.23;;;;;;;;;;4964433;28;20023;-76
2023/01/28 13:43:26;;;;;;;31.88;17.20;;;;;;;;;;4978547;28;20027;-77
2023/01/28 13:46:24;;;;;;;32.42;18.05;;;;;;;;;;4978904;28;20432;-76
2023/01/28 13:49:14;;;;;;;28.20;16.33;;;;;;;;;;4978754;28;20031;-76
2023/01/28 13:52:09;;;;;;;31.73;17.10;;;;;;;;;;4964627;28;20027;-77
2023/01/28 13:54:54;;;;;;;31.13;17.73;;;;;;;;;;4979238;28;20384;-76
2023/01/28 13:57:40;;;;;;;29.92;16.92;;;;;;;;;;4964537;28;20069;-76
2023/01/28 14:00:44;;;;;;;26.75;15.60;;;;;;;;;;4963953;28;20019;-76
2023/01/28 14:03:36;;;;;;;27.42;15.48;;;;;;;;;;4978577;28;20030;-76
2023/01/28 14:06:40;;;;;;;28.15;16.08;;;;;;;;;;4964188;28;20019;-77
2023/01/28 14:09:29;;;;;;;27.55;15.55;;;;;;;;;;4964672;28;20059;-76
2023/01/28 14:12:35;;;;;;;31.67;16.00;;;;;;;;;;4964296;28;20395;-76
2023/01/28 14:15:39;;;;;;;29.13;16.15;;;;;;;;;;4978397;28;20112;-77
2023/01/28 14:18:25;;;;;;;26.70;14.85;;;;;;;;;;4963614;28;20044;-77
2023/01/28 14:21:31;;;;;;;27.55;15.13;;;;;;;;;;4964448;28;20034;-76
2023/01/28 14:24:18;;;;;;;28.55;15.18;;;;;;;;;;4964809;28;20073;-77
2023/01/28 14:27:10;;;;;;;31.73;16.10;;;;;;;;;;4978218;28;20355;-77
2023/01/28 14:29:59;;;;;;;28.98;16.45;;;;;;;;;;4979559;28;20363;-76
2023/01/28 14:32:46;;;;;;;29.20;15.75;;;;;;;;;;4965640;28;20147;-75
2023/01/28 14:35:33;;;;;;;29.63;15.70;;;;;;;;;;4977540;28;20051;-76
2023/01/28 14:38:20;;;;;;;32.55;16.88;;;;;;;;;;4963874;28;20468;-77
2023/01/28 14:41:06;;;;;;;31.55;16.48;;;;;;;;;;4977676;28;20353;-76
2023/01/28 14:43:53;;;;;;;25.45;14.80;;;;;;;;;;4977953;28;20479;-76
2023/01/28 14:46:44;;;;;;;30.38;16.65;;;;;;;;;;4977577;28;20034;-77
2023/01/28 14:49:40;;;;;;;29.95;16.10;;;;;;;;;;4977766;28;20396;-77
2023/01/28 14:52:25;;;;;;;31.23;15.98;;;;;;;;;;4977507;28;20030;-77
2023/01/28 14:55:29;;;;;;;29.13;15.93;;;;;;;;;;4977421;28;20038;-76
2023/01/28 14:58:18;;;;;;;30.35;16.92;;;;;;;;;;4964037;28;20085;-76
2023/01/28 15:01:03;;;;;;;29.60;15.52;;;;;;;;;;4977454;28;20351;-76
2023/01/28 15:03:49;;;;;;;29.52;16.30;;;;;;;;;;4977585;28;20031;-76
2023/01/28 15:06:35;;;;;;;28.65;15.57;;;;;;;;;;4986260;28;20085;-77
2023/01/28 15:09:21;;;;;;;30.73;15.90;;;;;;;;;;4978984;28;20030;-77
2023/01/28 15:12:07;;;;;;;30.75;16.15;;;;;;;;;;4982117;28;20026;-77
2023/01/28 15:14:53;;;;;;;31.80;16.65;;;;;;;;;;4996790;28;20153;-77
2023/01/28 15:17:39;;;;;;;27.30;16.05;;;;;;;;;;4996712;28;20085;-76
2023/01/28 15:20:24;;;;;;;29.90;16.38;;;;;;;;;;4983024;28;20033;-76
2023/01/28 15:23:12;;;;;;;26.80;15.68;;;;;;;;;;4997128;28;20333;-76
2023/01/28 15:25:57;;;;;;;27.88;15.82;;;;;;;;;;4996815;28;20101;-76
2023/01/28 15:28:44;;;;;;;28.70;16.17;;;;;;;;;;4994948;28;20462;-76
2023/01/28 15:31:31;;;;;;;31.58;16.80;;;;;;;;;;4982198;28;20030;-76
2023/01/28 15:34:18;;;;;;;29.63;16.10;;;;;;;;;;4996799;28;20105;-77
2023/01/28 15:37:04;;;;;;;29.30;16.05;;;;;;;;;;4975993;28;20051;-75
2023/01/28 15:39:59;;;;;;;32.33;16.52;;;;;;;;;;4977576;28;20559;-76
2023/01/28 15:42:45;;;;;;;28.58;15.63;;;;;;;;;;4963044;28;20031;-76
2023/01/28 15:45:31;;;;;;;27.35;15.45;;;;;;;;;;4977111;28;20079;-76
2023/01/28 15:48:16;;;;;;;29.38;17.02;;;;;;;;;;4963100;28;20367;-75
2023/01/28 15:51:02;;;;;;;28.65;16.35;;;;;;;;;;4977211;28;20115;-76
2023/01/28 15:53:49;;;;;;;28.60;16.42;;;;;;;;;;4977184;28;20030;-77
2023/01/28 15:56:35;;;;;;;28.95;15.90;;;;;;;;;;4977342;28;20085;-77
2023/01/28 15:59:25;;;;;;;26.50;15.23;;;;;;;;;;4962842;28;20022;-77
2023/01/28 16:02:19;;;;;;;29.75;15.85;;;;;;;;;;4976981;28;20448;-77
2023/01/28 16:05:09;;;;;;;30.23;16.63;;;;;;;;;;4962980;28;20037;-77
2023/01/28 16:07:55;;;;;;;29.27;16.23;;;;;;;;;;4977029;28;20018;-76
2023/01/28 16:10:41;;;;;;;30.05;17.27;;;;;;;;;;4979111;28;20022;-76
2023/01/28 16:13:29;;;;;;;30.10;17.60;;;;;;;;;;4976679;28;20031;-76
2023/01/28 16:16:23;;;;;;;28.15;15.70;;;;;;;;;;4977540;28;20363;-75
2023/01/28 16:19:29;;;;;;;38.28;20.17;;;;;;;;;;4962880;28;20463;-76
2023/01/28 16:22:19;;;;;;;32.22;18.05;;;;;;;;;;4976460;28;20086;-76
2023/01/28 16:25:23;;;;;;;30.02;16.95;;;;;;;;;;4976787;28;20076;-76
2023/01/28 16:28:17;;;;;;;30.15;16.83;;;;;;;;;;4962806;28;20023;-76
2023/01/28 16:31:05;;;;;;;39.35;22.45;;;;;;;;;;4961821;28;20030;-75
2023/01/28 16:33:50;;;;;;;38.33;20.15;;;;;;;;;;4961938;28;20019;-77
2023/01/28 16:36:36;;;;;;;34.05;19.55;;;;;;;;;;4979556;28;20108;-77
2023/01/28 16:39:21;;;;;;;30.98;16.95;;;;;;;;;;4993542;28;20076;-76
2023/01/28 16:42:08;;;;;;;27.98;15.68;;;;;;;;;;4981276;28;20049;-78
2023/01/28 16:44:53;;;;;;;26.80;14.55;;;;;;;;;;4981209;28;20019;-76